createdAt,value
2022-11-05T00:00:17.681Z,13.35
2022-11-05T00:03:03.157Z,12.50
2022-11-05T00:05:48.579Z,13.32
2022-11-05T00:08:34.121Z,12.55
2022-11-05T00:11:01.011Z,14.50
2022-11-05T00:13:46.975Z,16.58
2022-11-05T00:16:39.967Z,17.30
2022-11-05T00:19:06.889Z,17.63
2022-11-05T00:21:54.240Z,18.25
2022-11-05T00:24:40.065Z,17.20
2022-11-05T00:27:07.198Z,21.65
2022-11-05T00:29:34.179Z,20.13
2022-11-05T00:32:01.311Z,25.30
2022-11-05T00:34:28.317Z,28.80
2022-11-05T00:36:55.812Z,29.35
2022-11-05T00:39:22.667Z,28.98
2022-11-05T00:42:09.412Z,28.10
2022-11-05T00:44:54.590Z,26.02
2022-11-05T00:47:40.111Z,25.23
2022-11-05T00:50:07.099Z,24.23
2022-11-05T00:52:52.614Z,26.83
2022-11-05T00:55:19.347Z,24.95
2022-11-05T00:57:46.113Z,24.98
2022-11-05T01:00:13.555Z,24.17
2022-11-05T01:02:40.326Z,24.55
2022-11-05T01:05:07.457Z,23.77
2022-11-05T01:07:34.361Z,25.30
2022-11-05T01:10:01.179Z,24.45
2022-11-05T01:12:28.067Z,23.35
2022-11-05T01:14:54.801Z,23.38
2022-11-05T01:17:21.474Z,21.30
2022-11-05T01:19:48.223Z,23.20
2022-11-05T01:22:14.952Z,22.25
2022-11-05T01:24:41.658Z,21.85
2022-11-05T01:27:08.427Z,23.95
2022-11-05T01:29:35.278Z,23.73
2022-11-05T01:32:02.081Z,24.25
2022-11-05T01:34:28.901Z,23.23
2022-11-05T01:36:55.625Z,24.92
2022-11-05T01:39:22.351Z,24.13
2022-11-05T01:41:49.111Z,24.80
2022-11-05T01:44:49.783Z,26.05
2022-11-05T01:47:35.795Z,23.38
2022-11-05T01:50:11.543Z,25.23
2022-11-05T01:52:38.336Z,24.33
2022-11-05T01:55:07.428Z,25.90
2022-11-05T01:57:34.210Z,26.30
2022-11-05T02:00:02.197Z,26.95
2022-11-05T02:02:30.701Z,26.63
2022-11-05T02:05:00.637Z,26.25
2022-11-05T02:07:29.283Z,25.02
2022-11-05T02:10:10.367Z,23.92
2022-11-05T02:12:41.386Z,26.25
2022-11-05T02:15:14.632Z,26.77
2022-11-05T02:17:51.763Z,25.42
2022-11-05T02:20:28.609Z,25.10
2022-11-05T02:23:24.504Z,25.75
2022-11-05T02:26:42.380Z,26.45
2022-11-05T02:29:27.602Z,26.45
2022-11-05T02:32:33.115Z,26.23
2022-11-05T02:35:22.893Z,26.50
2022-11-05T02:37:54.411Z,27.20
2022-11-05T02:40:41.410Z,26.58
2022-11-05T02:43:08.403Z,28.05
2022-11-05T02:45:58.586Z,27.85
2022-11-05T02:48:37.417Z,28.25
2022-11-05T02:51:14.840Z,28.20
2022-11-05T02:53:48.898Z,26.77
2022-11-05T02:56:29.001Z,25.88
2022-11-05T02:58:55.714Z,26.67
2022-11-05T03:01:22.593Z,25.33
2022-11-05T03:03:53.689Z,25.58
2022-11-05T03:06:51.020Z,28.80
2022-11-05T03:09:42.544Z,27.92
2022-11-05T03:12:43.082Z,28.05
2022-11-05T03:15:12.640Z,26.75
2022-11-05T03:18:03.155Z,28.60
2022-11-05T03:20:49.094Z,27.55
2022-11-05T03:23:27.707Z,28.45
2022-11-05T03:26:03.621Z,29.42
2022-11-05T03:28:35.275Z,28.77
2022-11-05T03:31:04.016Z,29.17
2022-11-05T03:33:33.737Z,28.15
2022-11-05T03:36:05.162Z,26.92
2022-11-05T03:38:35.546Z,28.92
2022-11-05T03:41:07.029Z,27.98
2022-11-05T03:43:40.126Z,27.15
2022-11-05T03:46:11.470Z,28.80
2022-11-05T03:48:46.333Z,29.45
2022-11-05T03:51:42.216Z,30.17
2022-11-05T03:54:09.403Z,29.88
2022-11-05T03:57:00.263Z,30.25
2022-11-05T03:59:28.404Z,29.98
2022-11-05T04:01:55.336Z,29.73
2022-11-05T04:04:22.469Z,31.00
2022-11-05T04:07:07.952Z,30.67
2022-11-05T04:09:53.265Z,31.08
2022-11-05T04:12:38.810Z,30.35
2022-11-05T04:15:05.998Z,31.55
2022-11-05T04:17:32.787Z,30.88
2022-11-05T04:20:18.248Z,31.33
2022-11-05T04:23:03.806Z,30.15
2022-11-05T04:25:30.536Z,28.45
2022-11-05T04:28:00.655Z,29.20
2022-11-05T04:30:27.391Z,29.25
2022-11-05T04:33:16.134Z,30.40
2022-11-05T04:35:49.341Z,28.35
2022-11-05T04:38:20.113Z,29.67
2022-11-05T04:40:48.105Z,30.42
2022-11-05T04:43:17.975Z,29.30
2022-11-05T04:45:45.630Z,27.63
2022-11-05T04:48:12.927Z,26.95
2022-11-05T04:50:39.649Z,28.70
2022-11-05T04:53:06.385Z,28.05
2022-11-05T04:55:33.139Z,28.98
2022-11-05T04:57:59.864Z,30.77
2022-11-05T05:00:26.592Z,28.48
2022-11-05T05:02:53.315Z,28.85
2022-11-05T05:05:21.240Z,29.02
2022-11-05T05:07:47.981Z,30.40
2022-11-05T05:10:14.671Z,29.65
2022-11-05T05:12:41.391Z,27.75
2022-11-05T05:15:09.563Z,26.70
2022-11-05T05:17:36.333Z,27.98
2022-11-05T05:20:21.997Z,26.27
2022-11-05T05:22:53.164Z,26.70
2022-11-05T05:25:20.051Z,26.38
2022-11-05T05:27:46.795Z,24.75
2022-11-05T05:30:13.603Z,25.63
2022-11-05T05:32:40.335Z,24.83
2022-11-05T05:35:07.332Z,25.05
2022-11-05T05:37:34.064Z,24.55
2022-11-05T05:40:00.824Z,22.80
2022-11-05T05:42:27.503Z,24.55
2022-11-05T05:44:54.258Z,22.85
2022-11-05T05:47:21.011Z,24.50
2022-11-05T05:49:47.728Z,23.77
2022-11-05T05:52:14.442Z,22.95
2022-11-05T05:54:42.978Z,23.33
2022-11-05T05:57:10.525Z,22.52
2022-11-05T05:59:37.272Z,22.85
2022-11-05T06:02:04.087Z,23.35
2022-11-05T06:04:30.896Z,24.00
2022-11-05T06:06:57.626Z,22.85
2022-11-05T06:09:24.844Z,24.00
2022-11-05T06:11:51.572Z,24.25
2022-11-05T06:14:18.288Z,22.35
2022-11-05T06:16:45.048Z,23.55
2022-11-05T06:19:11.802Z,23.85
2022-11-05T06:21:38.502Z,22.55
2022-11-05T06:24:05.439Z,23.25
2022-11-05T06:26:32.282Z,26.27
2022-11-05T06:28:58.980Z,24.27
2022-11-05T06:31:25.742Z,25.25
2022-11-05T06:33:52.621Z,21.38
2022-11-05T06:36:20.252Z,23.08
2022-11-05T06:38:47.118Z,22.27
2022-11-05T06:41:13.893Z,21.17
2022-11-05T06:43:41.112Z,21.00
2022-11-05T06:46:08.431Z,22.58
2022-11-05T06:48:35.378Z,22.83
2022-11-05T06:51:02.968Z,22.85
2022-11-05T06:53:30.249Z,21.90
2022-11-05T06:55:56.999Z,20.98
2022-11-05T06:58:23.836Z,20.60
2022-11-05T07:00:51.001Z,21.83
2022-11-05T07:03:17.838Z,20.50
2022-11-05T07:05:48.169Z,20.10
2022-11-05T07:08:15.333Z,20.17
2022-11-05T07:10:42.081Z,20.75
2022-11-05T07:13:09.188Z,19.48
2022-11-05T07:15:36.870Z,19.33
2022-11-05T07:18:07.675Z,17.42
2022-11-05T07:20:35.198Z,17.98
2022-11-05T07:23:04.287Z,18.10
2022-11-05T07:25:32.374Z,18.10
2022-11-05T07:27:59.288Z,17.63
2022-11-05T07:30:26.311Z,20.25
2022-11-05T07:32:53.077Z,18.02
2022-11-05T07:35:19.860Z,19.00
2022-11-05T07:37:51.586Z,18.88
2022-11-05T07:40:21.532Z,17.23
2022-11-05T07:42:56.747Z,17.08
2022-11-05T07:45:24.382Z,16.80
2022-11-05T07:47:56.740Z,16.95
2022-11-05T07:50:26.890Z,16.80
2022-11-05T07:52:53.831Z,19.05
2022-11-05T07:55:21.004Z,20.02
2022-11-05T07:57:49.877Z,17.40
2022-11-05T08:00:22.004Z,19.33
2022-11-05T08:03:10.803Z,20.57
2022-11-05T08:05:40.390Z,19.00
2022-11-05T08:08:09.038Z,18.33
2022-11-05T08:10:37.420Z,17.65
2022-11-05T08:13:05.638Z,16.65
2022-11-05T08:15:33.349Z,16.50
2022-11-05T08:18:10.169Z,15.50
2022-11-05T08:20:39.060Z,16.15
2022-11-05T08:23:06.049Z,15.27
2022-11-05T08:25:32.875Z,15.48
2022-11-05T08:28:05.849Z,15.32
2022-11-05T08:33:01.793Z,15.93
2022-11-05T08:35:29.158Z,15.80
2022-11-05T08:37:57.801Z,14.93
2022-11-05T08:40:25.882Z,14.65
2022-11-05T08:42:53.088Z,14.82
2022-11-05T08:45:20.148Z,14.07
2022-11-05T08:47:46.909Z,12.98
2022-11-05T08:50:13.682Z,8.18
2022-11-05T08:52:40.971Z,7.75
2022-11-05T08:55:08.140Z,8.20
2022-11-05T08:57:34.887Z,6.82
2022-11-05T09:00:01.617Z,8.13
2022-11-05T09:02:28.418Z,6.65
2022-11-05T09:04:55.239Z,6.70
2022-11-05T09:07:22.926Z,7.13
2022-11-05T09:09:49.778Z,7.22
2022-11-05T09:12:16.679Z,6.55
2022-11-05T09:14:43.394Z,6.65
2022-11-05T09:17:18.539Z,6.78
2022-11-05T09:19:45.631Z,6.25
2022-11-05T09:22:12.981Z,7.30
2022-11-05T09:24:40.642Z,7.72
2022-11-05T09:27:10.350Z,6.90
2022-11-05T09:29:37.700Z,6.85
2022-11-05T09:32:04.556Z,6.13
2022-11-05T09:34:31.278Z,6.10
2022-11-05T09:36:58.259Z,6.10
2022-11-05T09:39:25.196Z,6.35
2022-11-05T09:42:02.042Z,5.72
2022-11-05T09:44:59.443Z,5.60
2022-11-05T09:47:33.155Z,5.90
2022-11-05T09:50:02.799Z,5.88
2022-11-05T09:52:32.026Z,5.45
2022-11-05T09:54:59.415Z,5.20
2022-11-05T09:57:31.303Z,4.70
2022-11-05T10:00:02.012Z,5.07
2022-11-05T10:02:33.638Z,4.50
2022-11-05T10:05:09.772Z,5.15
2022-11-05T10:07:56.682Z,4.78
2022-11-05T10:10:43.620Z,5.15
2022-11-05T10:13:36.479Z,5.05
2022-11-05T10:16:08.035Z,4.18
2022-11-05T10:18:41.180Z,3.92
2022-11-05T10:21:16.650Z,4.53
2022-11-05T10:23:45.088Z,4.57
2022-11-05T10:26:15.998Z,4.13
2022-11-05T10:28:42.774Z,3.65
2022-11-05T10:31:14.106Z,4.57
2022-11-05T10:34:03.571Z,4.15
2022-11-05T10:36:33.595Z,4.22
2022-11-05T10:39:11.737Z,3.75
2022-11-05T10:41:56.489Z,3.95
2022-11-05T10:44:36.843Z,3.22
2022-11-05T10:47:25.321Z,4.15
2022-11-05T10:49:58.932Z,3.80
2022-11-05T10:52:31.947Z,3.45
2022-11-05T10:55:02.704Z,3.22
2022-11-05T10:57:39.464Z,2.92
2022-11-05T11:00:18.239Z,3.38
2022-11-05T11:02:55.656Z,2.85
2022-11-05T11:05:43.458Z,3.03
2022-11-05T11:08:13.276Z,3.05
2022-11-05T11:10:51.439Z,2.88
2022-11-05T11:13:46.330Z,2.80
2022-11-05T11:16:24.455Z,3.08
2022-11-05T11:19:00.506Z,2.60
2022-11-05T11:21:28.711Z,2.83
2022-11-05T11:23:58.195Z,2.20
2022-11-05T11:26:29.110Z,2.58
2022-11-05T11:29:23.233Z,2.72
2022-11-05T11:31:55.801Z,3.05
2022-11-05T11:34:34.545Z,2.75
2022-11-05T11:37:12.897Z,2.40
2022-11-05T11:39:50.295Z,2.10
2022-11-05T11:42:39.932Z,2.30
2022-11-05T11:45:19.718Z,2.30
2022-11-05T11:47:49.095Z,2.65
2022-11-05T11:50:40.412Z,2.20
2022-11-05T11:53:17.418Z,2.20
2022-11-05T11:55:56.571Z,2.30
2022-11-05T11:58:34.919Z,1.88
2022-11-05T12:01:39.994Z,2.20
2022-11-05T12:04:37.036Z,1.85
2022-11-05T12:07:18.812Z,2.10
2022-11-05T12:10:11.229Z,2.75
2022-11-05T12:12:55.709Z,2.13
2022-11-05T12:15:46.781Z,2.63
2022-11-05T12:18:47.512Z,3.05
2022-11-05T12:21:52.974Z,2.08
2022-11-05T12:24:37.843Z,2.15
2022-11-05T12:27:42.665Z,3.33
2022-11-05T12:30:15.932Z,2.55
2022-11-05T12:36:02.663Z,2.20
2022-11-05T12:38:39.641Z,2.20
2022-11-05T12:41:12.328Z,2.45
2022-11-05T12:43:50.171Z,2.20
2022-11-05T12:46:57.675Z,2.20
2022-11-05T12:49:59.622Z,2.10
2022-11-05T12:52:56.099Z,1.98
2022-11-05T12:55:25.704Z,2.28
2022-11-05T12:57:54.983Z,2.42
2022-11-05T13:00:24.530Z,2.05
2022-11-05T13:03:11.905Z,2.22
2022-11-05T13:05:40.526Z,2.05
2022-11-05T13:08:23.628Z,2.00
2022-11-05T13:10:55.839Z,2.22
2022-11-05T13:13:43.925Z,3.00
2022-11-05T13:16:22.605Z,2.50
2022-11-05T13:18:54.432Z,2.83
2022-11-05T13:21:24.426Z,2.60
2022-11-05T13:24:03.280Z,2.60
2022-11-05T13:26:39.144Z,3.38
2022-11-05T13:29:24.568Z,2.72
2022-11-05T13:32:12.584Z,2.80
2022-11-05T13:34:39.576Z,2.88
2022-11-05T13:37:47.301Z,2.55
2022-11-05T13:40:18.095Z,2.40
2022-11-05T13:43:27.626Z,2.60
2022-11-05T13:45:54.349Z,2.13
2022-11-05T13:48:44.373Z,2.63
2022-11-05T13:51:43.630Z,1.77
2022-11-05T13:54:47.717Z,2.00
2022-11-05T13:57:40.547Z,1.58
2022-11-05T14:01:01.305Z,1.90
2022-11-05T14:03:28.638Z,1.80
2022-11-05T14:06:03.655Z,1.98
2022-11-05T14:08:33.533Z,2.20
2022-11-05T14:11:07.623Z,1.77
2022-11-05T14:13:40.690Z,1.83
2022-11-05T14:18:47.281Z,2.13
2022-11-05T14:21:30.559Z,1.90
2022-11-05T14:26:28.535Z,1.90
2022-11-05T14:28:55.195Z,2.10
2022-11-05T14:31:47.414Z,1.60
2022-11-05T14:34:13.450Z,1.77
2022-11-05T14:36:42.927Z,1.92
2022-11-05T14:39:45.621Z,1.85
2022-11-05T14:42:19.974Z,1.50
2022-11-05T14:45:13.271Z,1.92
2022-11-05T14:47:50.381Z,2.50
2022-11-05T14:50:27.188Z,1.80
2022-11-05T14:52:57.417Z,1.98
2022-11-05T14:55:31.930Z,2.30
2022-11-05T14:57:58.678Z,1.85
2022-11-05T15:00:28.463Z,2.10
2022-11-05T15:03:02.339Z,2.35
2022-11-05T15:05:34.921Z,2.30
2022-11-05T15:08:32.102Z,1.92
2022-11-05T15:11:28.311Z,2.10
2022-11-05T15:13:55.288Z,2.20
2022-11-05T15:16:30.036Z,2.10
2022-11-05T15:18:57.660Z,2.13
2022-11-05T15:21:25.202Z,2.00
2022-11-05T15:23:56.712Z,2.10
2022-11-05T15:26:29.780Z,2.33
2022-11-05T15:28:57.188Z,2.20
2022-11-05T15:31:37.220Z,2.08
2022-11-05T15:34:28.918Z,2.80
2022-11-05T15:37:12.609Z,2.22
2022-11-05T15:39:42.049Z,2.33
2022-11-05T15:42:16.461Z,2.45
2022-11-05T15:44:46.339Z,2.80
2022-11-05T15:47:29.105Z,2.33
2022-11-05T15:50:01.265Z,2.53
2022-11-05T15:52:42.141Z,3.00
2022-11-05T15:55:23.963Z,2.17
2022-11-05T15:57:57.031Z,2.25
2022-11-05T16:03:03.067Z,2.63
2022-11-05T16:05:33.946Z,3.10
2022-11-05T16:08:04.316Z,2.42
2022-11-05T16:10:34.061Z,3.03
2022-11-05T16:13:28.654Z,3.13
2022-11-05T16:15:57.279Z,2.78
2022-11-05T16:18:30.180Z,2.80
2022-11-05T16:21:12.124Z,2.45
2022-11-05T16:23:54.016Z,3.63
2022-11-05T16:27:00.482Z,2.15
2022-11-05T16:29:21.355Z,2.95
2022-11-05T16:31:52.830Z,3.08
2022-11-05T16:34:41.348Z,2.78
2022-11-05T16:37:13.388Z,3.38
2022-11-05T16:39:40.313Z,3.65
2022-11-05T16:42:34.767Z,3.33
2022-11-05T16:45:01.774Z,3.55
2022-11-05T16:47:28.581Z,3.00
2022-11-05T16:49:55.493Z,3.78
2022-11-05T16:52:25.345Z,4.55
2022-11-05T16:54:52.167Z,4.03
2022-11-05T16:57:27.140Z,4.40
2022-11-05T16:59:59.117Z,3.85
2022-11-05T17:02:26.591Z,5.13
2022-11-05T17:04:53.866Z,5.35
2022-11-05T17:07:20.737Z,5.22
2022-11-05T17:09:47.561Z,5.55
2022-11-05T17:12:14.670Z,5.80
2022-11-05T17:14:41.617Z,5.28
2022-11-05T17:17:08.521Z,6.28
2022-11-05T17:19:35.358Z,6.30
2022-11-05T17:22:02.200Z,6.35
2022-11-05T17:24:29.126Z,6.65
2022-11-05T17:26:55.884Z,7.03
2022-11-05T17:29:22.663Z,6.75
2022-11-05T17:31:49.488Z,7.25
2022-11-05T17:34:16.268Z,7.60
2022-11-05T17:36:43.078Z,8.52
2022-11-05T17:39:11.027Z,7.10
2022-11-05T17:41:37.859Z,7.28
2022-11-05T17:44:04.820Z,7.43
2022-11-05T17:46:31.837Z,7.13
2022-11-05T17:48:58.604Z,7.85
2022-11-05T17:51:25.531Z,7.80
2022-11-05T17:53:52.438Z,7.55
2022-11-05T17:56:32.454Z,7.97
2022-11-05T17:59:01.744Z,8.35
2022-11-05T18:01:31.997Z,8.45
2022-11-05T18:04:03.769Z,8.38
2022-11-05T18:06:35.176Z,8.68
2022-11-05T18:09:02.060Z,8.15
2022-11-05T18:11:28.876Z,7.93
2022-11-05T18:13:55.772Z,8.68
2022-11-05T18:16:22.536Z,9.18
2022-11-05T18:18:49.359Z,8.75
2022-11-05T18:21:16.384Z,7.85
2022-11-05T18:23:43.621Z,7.43
2022-11-05T18:26:15.288Z,8.57
2022-11-05T18:28:43.445Z,9.23
2022-11-05T18:31:18.238Z,8.82
2022-11-05T18:33:45.495Z,7.88
2022-11-05T18:36:24.927Z,8.18
2022-11-05T18:38:52.129Z,7.82
2022-11-05T18:41:20.521Z,7.90
2022-11-05T18:43:47.915Z,8.43
2022-11-05T18:46:36.003Z,8.02
2022-11-05T18:49:03.049Z,9.20
2022-11-05T18:51:29.971Z,8.50
2022-11-05T18:53:56.789Z,8.18
2022-11-05T18:56:24.332Z,8.95
2022-11-05T18:59:14.654Z,7.65
2022-11-05T19:01:41.010Z,8.18
2022-11-05T19:04:07.935Z,7.97
2022-11-05T19:06:35.425Z,8.32
2022-11-05T19:09:03.700Z,9.77
2022-11-05T19:11:30.589Z,9.48
2022-11-05T19:13:57.417Z,8.48
2022-11-05T19:16:27.898Z,9.05
2022-11-05T19:18:57.579Z,9.00
2022-11-05T19:21:25.468Z,9.10
2022-11-05T19:23:53.298Z,9.35
2022-11-05T19:26:28.528Z,10.23
2022-11-05T19:28:57.885Z,11.45
2022-11-05T19:31:25.013Z,9.65
2022-11-05T19:33:53.088Z,9.07
2022-11-05T19:36:21.738Z,9.27
2022-11-05T19:38:53.241Z,9.77
2022-11-05T19:41:21.553Z,9.43
2022-11-05T19:43:50.299Z,8.95
2022-11-05T19:46:19.292Z,9.05
2022-11-05T19:48:47.006Z,9.10
2022-11-05T19:51:25.523Z,9.20
2022-11-05T19:53:52.954Z,9.35
2022-11-05T19:56:22.722Z,10.10
2022-11-05T19:58:49.965Z,10.00
2022-11-05T20:01:18.356Z,8.80
2022-11-05T20:03:45.990Z,9.10
2022-11-05T20:06:16.116Z,9.60
2022-11-05T20:09:07.069Z,10.13
2022-11-05T20:11:30.086Z,9.50
2022-11-05T20:13:57.503Z,13.20
2022-11-05T20:16:26.826Z,9.90
2022-11-05T20:18:53.782Z,11.00
2022-11-05T20:21:20.566Z,9.70
2022-11-05T20:23:47.712Z,8.90
2022-11-05T20:26:15.007Z,9.15
2022-11-05T20:28:43.687Z,9.40
2022-11-05T20:31:13.000Z,8.40
2022-11-05T20:33:40.837Z,8.55
2022-11-05T20:36:17.114Z,8.45
2022-11-05T20:38:47.802Z,8.32
2022-11-05T20:41:14.935Z,8.10
2022-11-05T20:43:42.138Z,7.85
2022-11-05T20:46:12.168Z,8.40
2022-11-05T20:48:39.271Z,8.05
2022-11-05T20:51:08.230Z,8.85
2022-11-05T20:53:35.971Z,8.75
2022-11-05T20:56:07.706Z,8.65
2022-11-05T20:58:36.674Z,9.18
2022-11-05T21:01:04.664Z,8.40
2022-11-05T21:03:31.846Z,8.90
2022-11-05T21:06:00.051Z,8.05
2022-11-05T21:08:28.159Z,8.77
2022-11-05T21:10:56.290Z,9.93
2022-11-05T21:13:23.986Z,9.57
2022-11-05T21:15:56.501Z,9.00
2022-11-05T21:18:26.597Z,8.55
2022-11-05T21:20:54.108Z,9.07
2022-11-05T21:23:21.448Z,8.25
2022-11-05T21:25:49.207Z,8.68
2022-11-05T21:28:16.857Z,9.10
2022-11-05T21:30:45.906Z,8.13
2022-11-05T21:33:14.215Z,8.50
2022-11-05T21:35:48.362Z,8.35
2022-11-05T21:38:16.731Z,8.75
2022-11-05T21:40:44.696Z,15.25
2022-11-05T21:43:12.117Z,10.48
2022-11-05T21:45:40.317Z,8.95
2022-11-05T21:48:08.627Z,9.43
2022-11-05T21:50:57.218Z,8.85
2022-11-05T21:53:42.712Z,8.98
2022-11-05T21:56:38.875Z,9.48
2022-11-05T21:59:24.200Z,10.02
2022-11-05T22:01:51.355Z,9.18
2022-11-05T22:04:18.467Z,9.18
2022-11-05T22:06:45.360Z,8.95
2022-11-05T22:09:12.122Z,9.25
2022-11-05T22:11:38.980Z,9.25
2022-11-05T22:14:05.881Z,8.07
2022-11-05T22:16:32.778Z,8.00
2022-11-05T22:18:59.874Z,8.07
2022-11-05T22:21:26.729Z,8.70
2022-11-05T22:23:54.036Z,7.93
2022-11-05T22:26:21.145Z,7.57
2022-11-05T22:28:48.053Z,7.13
2022-11-05T22:31:16.563Z,7.32
2022-11-05T22:33:44.015Z,7.55
2022-11-05T22:36:11.969Z,7.88
2022-11-05T22:38:39.734Z,7.63
2022-11-05T22:41:17.717Z,6.20
2022-11-05T22:43:45.227Z,6.72
2022-11-05T22:46:15.054Z,8.00
2022-11-05T22:51:16.698Z,7.80
2022-11-05T22:53:44.103Z,6.80
2022-11-05T22:56:15.296Z,6.93
2022-11-05T22:58:42.811Z,6.65
2022-11-05T23:01:11.876Z,7.22
2022-11-05T23:03:40.719Z,7.53
2022-11-05T23:06:40.354Z,7.82
2022-11-05T23:09:42.426Z,7.70
2022-11-05T23:12:37.930Z,6.85
2022-11-05T23:15:07.268Z,6.78
2022-11-05T23:17:52.702Z,5.85
2022-11-05T23:20:40.450Z,5.72
2022-11-05T23:23:29.907Z,4.57
2022-11-05T23:25:58.689Z,4.57
2022-11-05T23:28:25.549Z,4.65
2022-11-05T23:31:11.342Z,4.18
2022-11-05T23:33:38.122Z,3.90
2022-11-05T23:36:23.676Z,4.25
2022-11-05T23:38:50.498Z,4.32
2022-11-05T23:41:35.957Z,4.50
2022-11-05T23:44:21.696Z,4.20
2022-11-05T23:47:07.090Z,4.75
2022-11-05T23:49:34.131Z,3.80
2022-11-05T23:52:00.967Z,4.40
2022-11-05T23:54:27.891Z,3.67
2022-11-05T23:56:54.735Z,4.82
2022-11-05T23:59:21.722Z,4.13
